Time;durP1;ratioP1;P1;durP2;ratioP2;P2;SDS_P1;SDS_P2;PMS_P1;PMS_P2;Temp;Humidity;BMP_temperature;BMP_pressure;BME280_temperature;BME280_humidity;BME280_pressure;Samples;Min_cycle;Max_cycle;Signal;HPM_P1;HPM_P2
2023/09/02 00:00:55;;;;;;;7.88;7.05;;;;;;;;;;4976217;28;20449;-78
2023/09/02 00:03:20;;;;;;;8.80;7.00;;;;;;;;;;4993558;28;20101;-78
2023/09/02 00:05:46;;;;;;;7.47;6.55;;;;;;;;;;4976139;28;20035;-78
2023/09/02 00:08:11;;;;;;;7.78;6.25;;;;;;;;;;4992751;28;20385;-78
2023/09/02 00:10:37;;;;;;;7.57;6.75;;;;;;;;;;4976533;28;20117;-78
2023/09/02 00:13:03;;;;;;;9.43;6.78;;;;;;;;;;4994087;28;20104;-78
2023/09/02 00:15:28;;;;;;;10.73;6.97;;;;;;;;;;4992274;28;20034;-78
2023/09/02 00:17:54;;;;;;;8.13;7.07;;;;;;;;;;4993330;28;20061;-78
2023/09/02 00:20:20;;;;;;;8.73;7.07;;;;;;;;;;4992458;28;20393;-78
2023/09/02 00:22:46;;;;;;;7.80;6.97;;;;;;;;;;4992433;28;20038;-78
2023/09/02 00:25:11;;;;;;;8.38;6.82;;;;;;;;;;4993632;28;20492;-78
2023/09/02 00:27:37;;;;;;;7.88;6.93;;;;;;;;;;4992744;28;20115;-78
2023/09/02 00:30:03;;;;;;;7.63;6.38;;;;;;;;;;4975987;28;20022;-78
2023/09/02 00:32:29;;;;;;;6.90;6.18;;;;;;;;;;4995230;28;20034;-78
2023/09/02 00:34:54;;;;;;;8.55;6.70;;;;;;;;;;4995756;28;20048;-78
2023/09/02 00:37:20;;;;;;;8.10;6.68;;;;;;;;;;4979587;28;20038;-78
2023/09/02 00:39:45;;;;;;;7.43;6.55;;;;;;;;;;4979402;28;20117;-78
2023/09/02 00:42:12;;;;;;;9.98;6.57;;;;;;;;;;4979457;28;20053;-78
2023/09/02 00:44:37;;;;;;;7.70;6.28;;;;;;;;;;4995929;28;20026;-78
2023/09/02 00:47:03;;;;;;;7.45;6.55;;;;;;;;;;4996843;28;20173;-78
2023/09/02 00:49:28;;;;;;;8.02;6.40;;;;;;;;;;4996628;28;20114;-79
2023/09/02 00:51:54;;;;;;;8.10;6.85;;;;;;;;;;4996857;28;20367;-79
2023/09/02 00:54:20;;;;;;;7.55;6.20;;;;;;;;;;4995754;28;20038;-79
2023/09/02 00:56:45;;;;;;;8.57;6.93;;;;;;;;;;4979170;28;20100;-78
2023/09/02 00:59:11;;;;;;;8.25;6.63;;;;;;;;;;4995604;28;20069;-79
2023/09/02 01:01:40;;;;;;;6.75;5.90;;;;;;;;;;4995349;28;20030;-78
2023/09/02 01:04:05;;;;;;;7.50;6.32;;;;;;;;;;4995283;28;20429;-78
2023/09/02 01:06:31;;;;;;;8.35;6.90;;;;;;;;;;4995291;28;20030;-78
2023/09/02 01:08:57;;;;;;;8.77;6.30;;;;;;;;;;4995619;28;20042;-78
2023/09/02 01:11:22;;;;;;;9.20;6.75;;;;;;;;;;4996514;28;20037;-79
2023/09/02 01:13:48;;;;;;;6.93;6.20;;;;;;;;;;4994987;28;20512;-78
2023/09/02 01:16:13;;;;;;;6.70;6.00;;;;;;;;;;4994898;28;20050;-79
2023/09/02 01:18:39;;;;;;;8.15;6.28;;;;;;;;;;4996106;28;20030;-79
2023/09/02 01:21:19;;;;;;;8.98;6.50;;;;;;;;;;4995203;28;20493;-78
2023/09/02 01:24:06;;;;;;;7.70;6.53;;;;;;;;;;4996378;28;20034;-79
2023/09/02 01:27:09;;;;;;;7.35;5.88;;;;;;;;;;4996149;28;20105;-78
2023/09/02 01:29:37;;;;;;;8.80;6.00;;;;;;;;;;4994684;28;20022;-78
2023/09/02 01:32:06;;;;;;;8.27;6.30;;;;;;;;;;4994652;28;20030;-79
2023/09/02 01:34:33;;;;;;;8.85;6.25;;;;;;;;;;4994361;28;20477;-79
2023/09/02 01:36:59;;;;;;;7.22;5.95;;;;;;;;;;4996133;28;20097;-79
2023/09/02 01:39:26;;;;;;;6.70;6.00;;;;;;;;;;4994555;28;20038;-79
2023/09/02 01:41:51;;;;;;;7.30;5.75;;;;;;;;;;4994534;28;20027;-79
2023/09/02 01:44:17;;;;;;;6.53;5.82;;;;;;;;;;4995329;28;20040;-79
2023/09/02 01:46:43;;;;;;;6.55;5.70;;;;;;;;;;4994604;28;20081;-79
2023/09/02 01:49:09;;;;;;;8.30;6.43;;;;;;;;;;4978190;28;20034;-80
2023/09/02 01:51:34;;;;;;;8.50;6.18;;;;;;;;;;4994544;28;20069;-79
2023/09/02 01:54:00;;;;;;;8.00;6.13;;;;;;;;;;4978087;28;20037;-79
2023/09/02 01:56:25;;;;;;;6.75;5.80;;;;;;;;;;4994297;28;20030;-79
2023/09/02 01:58:53;;;;;;;6.15;5.47;;;;;;;;;;4995429;28;20081;-79
2023/09/02 02:01:18;;;;;;;6.60;5.75;;;;;;;;;;4994435;28;20466;-79
2023/09/02 02:04:06;;;;;;;6.30;5.70;;;;;;;;;;4994133;28;20041;-79
2023/09/02 02:06:32;;;;;;;6.80;6.10;;;;;;;;;;4977895;28;20054;-77
2023/09/02 02:09:04;;;;;;;7.28;5.80;;;;;;;;;;4977890;28;20394;-79
2023/09/02 02:11:34;;;;;;;7.37;5.70;;;;;;;;;;4993986;28;20041;-79
2023/09/02 02:14:05;;;;;;;6.65;5.70;;;;;;;;;;4993958;28;20113;-79
2023/09/02 02:16:31;;;;;;;7.05;5.50;;;;;;;;;;4994032;28;20066;-79
2023/09/02 02:19:00;;;;;;;7.45;5.93;;;;;;;;;;4977665;28;20168;-77
2023/09/02 02:21:27;;;;;;;8.27;5.82;;;;;;;;;;4993810;28;20041;-79
2023/09/02 02:23:53;;;;;;;6.72;5.65;;;;;;;;;;4994012;28;20041;-79
2023/09/02 02:26:18;;;;;;;6.53;5.82;;;;;;;;;;4993614;28;20389;-79
2023/09/02 02:28:43;;;;;;;7.53;5.25;;;;;;;;;;4993911;28;20030;-79
2023/09/02 02:31:09;;;;;;;5.78;5.20;;;;;;;;;;4993526;28;20028;-78
2023/09/02 02:33:37;;;;;;;5.82;5.15;;;;;;;;;;4993904;28;20374;-78
2023/09/02 02:36:02;;;;;;;6.88;5.63;;;;;;;;;;4993848;28;20058;-78
2023/09/02 02:38:28;;;;;;;6.03;5.43;;;;;;;;;;4993618;28;20050;-79
2023/09/02 02:40:53;;;;;;;6.43;5.25;;;;;;;;;;4994578;28;20393;-78
2023/09/02 02:43:25;;;;;;;6.50;5.53;;;;;;;;;;4995079;28;20030;-78
2023/09/02 02:45:51;;;;;;;6.05;5.43;;;;;;;;;;4993980;28;20049;-79
2023/09/02 02:48:17;;;;;;;7.28;5.25;;;;;;;;;;4993320;28;20080;-78
2023/09/02 02:50:42;;;;;;;7.05;5.35;;;;;;;;;;4993292;28;20038;-79
2023/09/02 02:53:08;;;;;;;7.05;5.22;;;;;;;;;;4993612;28;20029;-78
2023/09/02 02:55:33;;;;;;;5.90;5.25;;;;;;;;;;4994347;28;20030;-79
2023/09/02 02:57:59;;;;;;;6.00;5.07;;;;;;;;;;4994419;28;20038;-78
2023/09/02 03:00:24;;;;;;;6.63;5.30;;;;;;;;;;4993679;28;20034;-78
2023/09/02 03:02:53;;;;;;;5.88;5.30;;;;;;;;;;4994359;28;20026;-78
2023/09/02 03:05:20;;;;;;;7.57;5.95;;;;;;;;;;4994307;28;20101;-78
2023/09/02 03:07:47;;;;;;;7.38;5.53;;;;;;;;;;4994401;28;20092;-79
2023/09/02 03:10:13;;;;;;;5.38;4.88;;;;;;;;;;4994920;28;20533;-79
2023/09/02 03:12:38;;;;;;;5.88;5.22;;;;;;;;;;4994114;28;20038;-79
2023/09/02 03:15:04;;;;;;;6.60;5.53;;;;;;;;;;4992824;28;20034;-79
2023/09/02 03:17:30;;;;;;;6.47;5.60;;;;;;;;;;4992629;28;20587;-79
2023/09/02 03:19:55;;;;;;;5.57;4.97;;;;;;;;;;4976574;28;20032;-79
2023/09/02 03:22:21;;;;;;;6.38;5.10;;;;;;;;;;4993109;28;20041;-79
2023/09/02 03:24:46;;;;;;;6.82;5.32;;;;;;;;;;4993973;28;20436;-78
2023/09/02 03:27:11;;;;;;;5.82;5.10;;;;;;;;;;4992714;28;20438;-79
2023/09/02 03:29:37;;;;;;;5.40;4.90;;;;;;;;;;4992675;28;20027;-79
2023/09/02 03:32:02;;;;;;;9.02;5.00;;;;;;;;;;4992627;28;20030;-79
2023/09/02 03:34:28;;;;;;;6.00;5.10;;;;;;;;;;4994408;28;20037;-79
2023/09/02 03:36:53;;;;;;;5.70;5.07;;;;;;;;;;4992692;28;20383;-78
2023/09/02 03:39:18;;;;;;;5.20;4.70;;;;;;;;;;4994158;28;20081;-78
2023/09/02 03:41:45;;;;;;;6.15;5.40;;;;;;;;;;4994091;28;20445;-78
2023/09/02 03:44:10;;;;;;;5.93;5.22;;;;;;;;;;4994104;28;20089;-79
2023/09/02 03:46:36;;;;;;;6.00;5.28;;;;;;;;;;4993974;28;20437;-78
2023/09/02 03:49:02;;;;;;;5.75;4.78;;;;;;;;;;4992840;28;20031;-78
2023/09/02 03:51:28;;;;;;;5.68;4.95;;;;;;;;;;4993692;28;20030;-78
2023/09/02 03:53:53;;;;;;;5.97;5.07;;;;;;;;;;4976222;28;20030;-78
2023/09/02 03:56:18;;;;;;;7.10;5.38;;;;;;;;;;4994062;28;20114;-78
2023/09/02 03:58:44;;;;;;;5.82;5.20;;;;;;;;;;4993691;28;20045;-78
2023/09/02 04:01:09;;;;;;;6.95;5.50;;;;;;;;;;4993791;28;20105;-79
2023/09/02 04:03:35;;;;;;;9.05;6.20;;;;;;;;;;4992823;28;20157;-78
2023/09/02 04:06:01;;;;;;;6.95;5.65;;;;;;;;;;4994778;28;20038;-78
2023/09/02 04:08:26;;;;;;;6.90;5.53;;;;;;;;;;4980136;28;20080;-79
2023/09/02 04:10:53;;;;;;;6.28;4.95;;;;;;;;;;4996503;28;20034;-79
2023/09/02 04:13:24;;;;;;;5.60;5.00;;;;;;;;;;4980579;28;20026;-79
2023/09/02 04:15:56;;;;;;;5.65;4.80;;;;;;;;;;4996434;28;20142;-79
2023/09/02 04:18:22;;;;;;;6.00;4.88;;;;;;;;;;4997180;28;20061;-79
2023/09/02 04:20:48;;;;;;;5.68;4.97;;;;;;;;;;4980491;28;20026;-79
2023/09/02 04:23:13;;;;;;;5.68;4.97;;;;;;;;;;4980034;28;20026;-79
2023/09/02 04:25:51;;;;;;;7.78;5.78;;;;;;;;;;4996460;28;20393;-79
2023/09/02 04:28:16;;;;;;;6.18;5.43;;;;;;;;;;4996402;28;20022;-79
2023/09/02 04:30:43;;;;;;;6.30;5.22;;;;;;;;;;4997566;28;20491;-79
2023/09/02 04:33:09;;;;;;;6.15;5.13;;;;;;;;;;4996659;28;20025;-79
2023/09/02 04:35:43;;;;;;;6.38;5.15;;;;;;;;;;4996014;28;20085;-79
2023/09/02 04:38:09;;;;;;;6.15;5.20;;;;;;;;;;4979755;28;20029;-79
2023/09/02 04:40:41;;;;;;;6.82;5.20;;;;;;;;;;4980374;28;20039;-79
2023/09/02 04:43:08;;;;;;;5.90;4.53;;;;;;;;;;4997027;28;20536;-79
2023/09/02 04:45:34;;;;;;;5.05;4.53;;;;;;;;;;4996018;28;20026;-78
2023/09/02 04:48:01;;;;;;;6.25;4.93;;;;;;;;;;4995953;28;20117;-78
2023/09/02 04:50:27;;;;;;;6.30;5.18;;;;;;;;;;4995601;28;20089;-78
2023/09/02 04:52:52;;;;;;;6.15;4.85;;;;;;;;;;4996917;28;20062;-78
2023/09/02 04:55:19;;;;;;;6.45;4.97;;;;;;;;;;4995941;28;20077;-79
2023/09/02 04:57:45;;;;;;;5.90;5.10;;;;;;;;;;4996700;28;20038;-79
2023/09/02 05:00:12;;;;;;;6.22;5.05;;;;;;;;;;4995542;28;20026;-79
2023/09/02 05:02:37;;;;;;;5.22;4.65;;;;;;;;;;4996871;28;20469;-79
2023/09/02 05:05:03;;;;;;;5.82;4.63;;;;;;;;;;4995315;28;20034;-78
2023/09/02 05:07:28;;;;;;;5.50;4.82;;;;;;;;;;4979101;28;20030;-79
2023/09/02 05:09:54;;;;;;;5.60;4.57;;;;;;;;;;4995571;28;20516;-79
2023/09/02 05:12:20;;;;;;;6.72;4.57;;;;;;;;;;4996953;28;20044;-79
2023/09/02 05:14:45;;;;;;;5.80;4.55;;;;;;;;;;4995157;28;20125;-79
2023/09/02 05:17:11;;;;;;;5.45;4.63;;;;;;;;;;4994953;28;20038;-79
2023/09/02 05:19:36;;;;;;;5.68;4.78;;;;;;;;;;4979010;28;20446;-79
2023/09/02 05:22:03;;;;;;;6.45;5.05;;;;;;;;;;4995039;28;20030;-79
2023/09/02 05:24:28;;;;;;;8.40;5.10;;;;;;;;;;4995316;28;20030;-79
2023/09/02 05:26:54;;;;;;;7.97;5.38;;;;;;;;;;4995406;28;20042;-79
2023/09/02 05:29:19;;;;;;;6.47;5.20;;;;;;;;;;4995457;28;20093;-79
2023/09/02 05:31:45;;;;;;;11.27;5.43;;;;;;;;;;4994268;28;20126;-79
2023/09/02 05:34:10;;;;;;;9.05;5.63;;;;;;;;;;4994060;28;20394;-79
2023/09/02 05:36:35;;;;;;;6.43;4.53;;;;;;;;;;4995339;28;20117;-79
2023/09/02 05:39:01;;;;;;;6.68;4.78;;;;;;;;;;4995881;28;20037;-77
2023/09/02 05:41:28;;;;;;;6.82;5.03;;;;;;;;;;4995721;28;20038;-79
2023/09/02 05:43:53;;;;;;;7.43;5.43;;;;;;;;;;4995631;28;20031;-79
2023/09/02 05:46:19;;;;;;;10.15;6.60;;;;;;;;;;4995787;28;20089;-78
2023/09/02 05:48:44;;;;;;;11.90;7.18;;;;;;;;;;4996041;28;20152;-79
2023/09/02 05:51:09;;;;;;;12.20;8.27;;;;;;;;;;4994131;28;20084;-80
2023/09/02 05:53:35;;;;;;;8.82;6.75;;;;;;;;;;4994421;28;20037;-79
2023/09/02 05:56:00;;;;;;;11.40;6.60;;;;;;;;;;4994628;28;20456;-78
2023/09/02 05:58:26;;;;;;;10.27;6.35;;;;;;;;;;4994300;28;20033;-78
2023/09/02 06:00:52;;;;;;;11.43;7.13;;;;;;;;;;4994852;28;20035;-80
2023/09/02 06:03:17;;;;;;;14.70;8.05;;;;;;;;;;4995474;28;20041;-80
2023/09/02 06:05:43;;;;;;;12.30;7.47;;;;;;;;;;4995246;28;20062;-80
2023/09/02 06:08:08;;;;;;;13.10;7.30;;;;;;;;;;4994333;28;20022;-79
2023/09/02 06:10:33;;;;;;;16.02;7.60;;;;;;;;;;4994464;28;20121;-79
2023/09/02 06:12:59;;;;;;;14.27;8.43;;;;;;;;;;4995465;28;20034;-79
2023/09/02 06:15:24;;;;;;;13.77;7.30;;;;;;;;;;4978007;28;20366;-79
2023/09/02 06:17:50;;;;;;;12.57;7.95;;;;;;;;;;4995206;28;20140;-80
2023/09/02 06:20:16;;;;;;;14.85;7.93;;;;;;;;;;4977798;28;20034;-79
2023/09/02 06:22:43;;;;;;;13.27;8.32;;;;;;;;;;4996782;28;20408;-78
2023/09/02 06:25:08;;;;;;;13.77;8.30;;;;;;;;;;4979808;28;20037;-79
2023/09/02 06:27:34;;;;;;;13.00;7.65;;;;;;;;;;4997386;28;20026;-79
2023/09/02 06:29:59;;;;;;;11.00;7.28;;;;;;;;;;4996639;28;20034;-79
2023/09/02 06:32:25;;;;;;;11.88;7.75;;;;;;;;;;4995882;28;20088;-79
2023/09/02 06:34:53;;;;;;;10.05;7.25;;;;;;;;;;4994836;28;20042;-79
2023/09/02 06:37:19;;;;;;;11.55;7.65;;;;;;;;;;4995536;28;20034;-78
2023/09/02 06:39:44;;;;;;;11.57;7.03;;;;;;;;;;4993999;28;20488;-78
2023/09/02 06:42:09;;;;;;;12.35;7.30;;;;;;;;;;4993830;28;20018;-78
2023/09/02 06:44:35;;;;;;;9.80;6.93;;;;;;;;;;4993906;28;20389;-78
2023/09/02 06:47:00;;;;;;;10.95;7.00;;;;;;;;;;4996160;28;20030;-79
2023/09/02 06:49:25;;;;;;;9.73;6.85;;;;;;;;;;4996049;28;20442;-79
2023/09/02 06:51:51;;;;;;;11.63;7.10;;;;;;;;;;5000684;28;20105;-78
2023/09/02 06:54:16;;;;;;;9.93;6.60;;;;;;;;;;5003176;28;20030;-79
2023/09/02 06:56:42;;;;;;;10.00;6.15;;;;;;;;;;5001387;28;20477;-79
2023/09/02 06:59:07;;;;;;;9.35;7.00;;;;;;;;;;5000040;28;20030;-78
2023/09/02 07:01:33;;;;;;;7.88;5.53;;;;;;;;;;4995835;28;20061;-78
2023/09/02 07:03:58;;;;;;;8.05;5.32;;;;;;;;;;4979157;28;20034;-79
2023/09/02 07:06:23;;;;;;;9.00;6.00;;;;;;;;;;4979532;28;20038;-79
2023/09/02 07:08:49;;;;;;;9.15;6.03;;;;;;;;;;4996244;28;20030;-79
2023/09/02 07:11:14;;;;;;;8.73;6.53;;;;;;;;;;4978989;28;20397;-78
2023/09/02 07:13:42;;;;;;;9.32;5.47;;;;;;;;;;5001743;28;20039;-78
2023/09/02 07:16:08;;;;;;;7.97;5.70;;;;;;;;;;5003190;28;20392;-78
2023/09/02 07:18:33;;;;;;;9.43;5.40;;;;;;;;;;5000351;28;20070;-79
2023/09/02 07:21:00;;;;;;;7.72;5.05;;;;;;;;;;5000486;28;20030;-79
2023/09/02 07:23:26;;;;;;;8.18;5.28;;;;;;;;;;4996561;28;20025;-79
2023/09/02 07:25:51;;;;;;;8.60;5.28;;;;;;;;;;4994716;28;20034;-79
2023/09/02 07:28:16;;;;;;;6.72;5.75;;;;;;;;;;4977261;28;20514;-79
2023/09/02 07:30:42;;;;;;;8.30;5.07;;;;;;;;;;4976264;28;20045;-78
2023/09/02 07:33:08;;;;;;;7.68;5.00;;;;;;;;;;4992325;28;20381;-79
2023/09/02 07:35:36;;;;;;;6.78;4.70;;;;;;;;;;4992526;28;20089;-78
2023/09/02 07:38:03;;;;;;;5.10;4.28;;;;;;;;;;4993379;28;20038;-78
2023/09/02 07:40:28;;;;;;;6.60;5.10;;;;;;;;;;4975505;28;20034;-78
2023/09/02 07:42:54;;;;;;;5.85;4.32;;;;;;;;;;4975784;28;20038;-78
2023/09/02 07:45:19;;;;;;;9.13;5.70;;;;;;;;;;4992303;28;20053;-79
2023/09/02 07:47:45;;;;;;;6.22;4.53;;;;;;;;;;4992247;28;20034;-78
2023/09/02 07:50:11;;;;;;;6.90;5.25;;;;;;;;;;4991979;28;20397;-79
2023/09/02 07:52:36;;;;;;;5.75;4.78;;;;;;;;;;4991852;28;20033;-78
2023/09/02 07:55:03;;;;;;;5.80;4.07;;;;;;;;;;4992005;28;20397;-79
2023/09/02 07:57:30;;;;;;;4.78;4.15;;;;;;;;;;4993028;28;20034;-79
2023/09/02 07:59:56;;;;;;;5.88;4.85;;;;;;;;;;4975955;28;20390;-79
2023/09/02 08:02:21;;;;;;;5.45;4.57;;;;;;;;;;4993482;28;20026;-79
2023/09/02 08:04:47;;;;;;;6.38;5.20;;;;;;;;;;4993744;28;20048;-79
2023/09/02 08:07:12;;;;;;;7.03;4.68;;;;;;;;;;4993318;28;20034;-79
2023/09/02 08:09:37;;;;;;;4.35;3.85;;;;;;;;;;4993389;28;20431;-79
2023/09/02 08:12:03;;;;;;;5.53;4.18;;;;;;;;;;4993100;28;20039;-79
2023/09/02 08:14:28;;;;;;;7.38;5.45;;;;;;;;;;4992040;28;20093;-79
2023/09/02 08:16:54;;;;;;;7.20;5.07;;;;;;;;;;4955507;28;1111313;-80
2023/09/02 08:19:19;;;;;;;5.90;4.50;;;;;;;;;;4994158;28;20049;-80
2023/09/02 08:21:45;;;;;;;7.65;5.50;;;;;;;;;;4992864;28;20042;-79
2023/09/02 08:24:10;;;;;;;7.93;5.72;;;;;;;;;;4994065;28;20033;-79
2023/09/02 08:26:36;;;;;;;8.85;4.95;;;;;;;;;;4992640;28;20030;-79
2023/09/02 08:29:01;;;;;;;6.00;4.70;;;;;;;;;;4992537;28;20089;-80
2023/09/02 08:31:27;;;;;;;11.00;5.97;;;;;;;;;;4976262;28;20035;-79
2023/09/02 08:33:52;;;;;;;14.00;6.82;;;;;;;;;;4992931;28;20461;-79
2023/09/02 08:36:18;;;;;;;16.70;7.72;;;;;;;;;;4976456;28;20129;-79
2023/09/02 08:38:44;;;;;;;17.52;7.85;;;;;;;;;;4992283;28;20061;-82
2023/09/02 08:41:22;;;;;;;12.15;8.15;;;;;;;;;;4995104;28;20489;-80
2023/09/02 08:43:51;;;;;;;14.50;7.57;;;;;;;;;;4977716;28;20022;-80
2023/09/02 08:46:16;;;;;;;11.18;7.65;;;;;;;;;;4992965;28;20121;-82
2023/09/02 08:48:43;;;;;;;18.67;7.40;;;;;;;;;;4992863;28;20230;-82
2023/09/02 08:51:10;;;;;;;13.30;7.78;;;;;;;;;;4994005;28;20046;-81
2023/09/02 08:53:36;;;;;;;10.43;7.38;;;;;;;;;;4995819;28;20022;-80
2023/09/02 08:56:01;;;;;;;11.75;6.95;;;;;;;;;;4996320;28;20037;-81
2023/09/02 08:58:27;;;;;;;9.57;7.05;;;;;;;;;;4995983;28;20117;-81
2023/09/02 09:00:52;;;;;;;12.63;7.30;;;;;;;;;;4995580;28;20034;-81
2023/09/02 09:03:19;;;;;;;10.02;7.55;;;;;;;;;;4995784;28;20368;-81
2023/09/02 09:05:44;;;;;;;9.35;7.30;;;;;;;;;;4997595;28;20030;-82
2023/09/02 09:08:10;;;;;;;10.45;7.43;;;;;;;;;;4995610;28;20026;-81
2023/09/02 09:10:36;;;;;;;11.77;7.55;;;;;;;;;;4995685;28;20385;-82
2023/09/02 09:13:04;;;;;;;10.30;7.13;;;;;;;;;;4995521;28;20038;-83
2023/09/02 09:15:30;;;;;;;9.38;6.95;;;;;;;;;;4995575;28;20544;-81
2023/09/02 09:17:55;;;;;;;9.38;6.90;;;;;;;;;;4995460;28;20062;-80
2023/09/02 09:20:21;;;;;;;9.52;7.70;;;;;;;;;;4995709;28;20089;-84
2023/09/02 09:22:50;;;;;;;8.35;6.15;;;;;;;;;;4979437;28;20084;-81
2023/09/02 09:25:16;;;;;;;10.05;7.25;;;;;;;;;;4996350;28;20462;-81
2023/09/02 09:27:41;;;;;;;9.90;7.18;;;;;;;;;;4979584;28;20109;-80
2023/09/02 09:30:27;;;;;;;10.77;7.82;;;;;;;;;;4995806;28;20117;-80
2023/09/02 09:32:57;;;;;;;10.88;7.07;;;;;;;;;;4996857;28;20109;-81
2023/09/02 09:35:23;;;;;;;9.65;7.05;;;;;;;;;;5005716;28;20026;-82
2023/09/02 09:37:55;;;;;;;9.90;6.75;;;;;;;;;;5002242;28;20041;-80
2023/09/02 09:40:30;;;;;;;12.23;7.97;;;;;;;;;;5000739;28;20030;-82
2023/09/02 09:42:56;;;;;;;9.13;7.07;;;;;;;;;;4995864;28;20031;-81
2023/09/02 09:45:21;;;;;;;9.50;7.20;;;;;;;;;;4996505;28;20040;-81
2023/09/02 09:47:47;;;;;;;9.88;7.18;;;;;;;;;;4994792;28;20387;-81
2023/09/02 09:50:13;;;;;;;9.63;7.18;;;;;;;;;;4994705;28;20038;-81
2023/09/02 09:52:39;;;;;;;9.68;6.80;;;;;;;;;;4994546;28;20035;-80
2023/09/02 09:55:04;;;;;;;11.73;8.75;;;;;;;;;;4995195;28;20038;-81
2023/09/02 09:57:30;;;;;;;10.13;8.23;;;;;;;;;;4994841;28;20037;-81
2023/09/02 09:59:56;;;;;;;8.23;6.53;;;;;;;;;;4995618;28;20072;-81
2023/09/02 10:02:22;;;;;;;8.93;6.68;;;;;;;;;;4994663;28;20466;-81
2023/09/02 10:04:55;;;;;;;8.23;6.72;;;;;;;;;;4977424;28;20033;-81
2023/09/02 10:07:26;;;;;;;8.10;6.55;;;;;;;;;;4994532;28;20069;-81
2023/09/02 10:09:55;;;;;;;7.68;5.53;;;;;;;;;;4994599;28;20034;-81
2023/09/02 10:12:21;;;;;;;7.60;6.10;;;;;;;;;;4995685;28;20466;-81
2023/09/02 10:14:48;;;;;;;8.85;6.45;;;;;;;;;;4995319;28;20034;-80
2023/09/02 10:17:14;;;;;;;6.97;5.40;;;;;;;;;;4994467;28;20050;-81
2023/09/02 10:19:40;;;;;;;7.30;5.25;;;;;;;;;;4994981;28;20072;-83
2023/09/02 10:22:06;;;;;;;5.25;4.60;;;;;;;;;;4994212;28;20025;-78
2023/09/02 10:24:34;;;;;;;5.72;4.55;;;;;;;;;;4978169;28;20462;-78
2023/09/02 10:27:04;;;;;;;6.55;4.22;;;;;;;;;;4994311;28;20105;-78
2023/09/02 10:29:34;;;;;;;7.53;4.40;;;;;;;;;;4994100;28;20025;-78
2023/09/02 10:32:12;;;;;;;4.80;4.05;;;;;;;;;;4994257;28;20658;-81
2023/09/02 10:35:02;;;;;;;6.15;4.22;;;;;;;;;;4995780;28;20030;-79
2023/09/02 10:37:29;;;;;;;6.47;4.53;;;;;;;;;;4993860;28;20565;-81
2023/09/02 10:40:04;;;;;;;5.13;4.38;;;;;;;;;;4994136;28;20473;-78
2023/09/02 10:42:30;;;;;;;8.90;5.35;;;;;;;;;;4995012;28;20061;-79
2023/09/02 10:44:55;;;;;;;6.70;5.15;;;;;;;;;;4993672;28;20470;-80
2023/09/02 10:47:20;;;;;;;8.63;6.00;;;;;;;;;;4995022;28;20109;-79
2023/09/02 10:49:46;;;;;;;7.72;5.88;;;;;;;;;;4995016;28;20026;-79
2023/09/02 10:52:14;;;;;;;7.40;6.15;;;;;;;;;;4993765;28;20080;-79
2023/09/02 10:55:04;;;;;;;7.50;5.95;;;;;;;;;;4977250;28;20075;-79
2023/09/02 10:57:30;;;;;;;7.22;5.70;;;;;;;;;;4993774;28;20444;-79
2023/09/02 11:00:14;;;;;;;8.77;5.45;;;;;;;;;;4977395;28;20026;-79
2023/09/02 11:02:41;;;;;;;6.07;5.05;;;;;;;;;;4994463;28;20029;-79
2023/09/02 11:05:07;;;;;;;7.28;5.55;;;;;;;;;;4993595;28;20049;-80
2023/09/02 11:07:34;;;;;;;9.43;5.93;;;;;;;;;;4993220;28;20401;-78
2023/09/02 11:10:00;;;;;;;11.60;5.82;;;;;;;;;;4977350;28;20030;-79
2023/09/02 11:12:27;;;;;;;7.10;5.20;;;;;;;;;;4993066;28;20038;-79
2023/09/02 11:15:08;;;;;;;6.93;5.68;;;;;;;;;;4976629;28;20034;-79
2023/09/02 11:17:37;;;;;;;8.52;6.68;;;;;;;;;;4994292;28;20049;-79
2023/09/02 11:20:07;;;;;;;8.27;6.50;;;;;;;;;;4994556;28;20501;-78
2023/09/02 11:22:45;;;;;;;10.20;6.55;;;;;;;;;;4993146;28;20186;-79
2023/09/02 11:25:10;;;;;;;9.45;7.03;;;;;;;;;;4994294;28;20389;-79
2023/09/02 11:27:45;;;;;;;11.85;7.05;;;;;;;;;;4992900;28;20485;-79
2023/09/02 11:30:11;;;;;;;12.77;7.78;;;;;;;;;;4993303;28;20034;-79
2023/09/02 11:32:43;;;;;;;14.95;7.95;;;;;;;;;;4993948;28;20041;-79
2023/09/02 11:35:11;;;;;;;10.20;6.43;;;;;;;;;;4992911;28;20054;-81
2023/09/02 11:37:36;;;;;;;11.90;7.78;;;;;;;;;;4992889;28;20037;-79
2023/09/02 11:40:15;;;;;;;9.75;6.68;;;;;;;;;;4992900;28;20389;-79
2023/09/02 11:43:07;;;;;;;15.27;7.90;;;;;;;;;;4993180;28;20030;-79
2023/09/02 11:45:34;;;;;;;11.50;7.82;;;;;;;;;;4991932;28;20038;-79
2023/09/02 11:48:02;;;;;;;16.75;8.57;;;;;;;;;;4976548;28;20482;-79
2023/09/02 11:50:27;;;;;;;11.32;7.70;;;;;;;;;;4992751;28;20042;-79
2023/09/02 11:52:55;;;;;;;13.35;7.90;;;;;;;;;;4992570;28;20027;-80
2023/09/02 11:55:21;;;;;;;12.10;8.75;;;;;;;;;;4993492;28;20030;-80
2023/09/02 11:57:47;;;;;;;12.75;8.70;;;;;;;;;;4992783;28;20392;-79
2023/09/02 12:00:20;;;;;;;11.45;7.95;;;;;;;;;;4992961;28;20084;-80
2023/09/02 12:02:47;;;;;;;17.60;8.35;;;;;;;;;;4976406;28;20389;-79
2023/09/02 12:05:13;;;;;;;11.57;8.40;;;;;;;;;;4992663;28;20559;-79
2023/09/02 12:07:40;;;;;;;10.70;7.90;;;;;;;;;;4994017;28;20026;-80
2023/09/02 12:10:13;;;;;;;11.70;8.35;;;;;;;;;;4992698;28;20121;-80
2023/09/02 12:12:46;;;;;;;12.02;7.55;;;;;;;;;;4994257;28;20480;-79
2023/09/02 12:15:16;;;;;;;10.60;8.05;;;;;;;;;;4992552;28;20022;-79
2023/09/02 12:17:42;;;;;;;9.73;6.72;;;;;;;;;;4992411;28;20076;-80
2023/09/02 12:20:09;;;;;;;12.55;8.32;;;;;;;;;;4976380;28;20512;-78
2023/09/02 12:22:36;;;;;;;10.52;7.60;;;;;;;;;;4992464;28;20533;-79
2023/09/02 12:25:12;;;;;;;8.38;7.07;;;;;;;;;;4993773;28;20034;-79
2023/09/02 12:27:37;;;;;;;9.07;7.03;;;;;;;;;;4996045;28;20474;-79
2023/09/02 12:30:03;;;;;;;10.98;6.55;;;;;;;;;;4996494;28;20121;-79
2023/09/02 12:32:29;;;;;;;9.65;7.10;;;;;;;;;;4996355;28;20057;-80
2023/09/02 12:34:55;;;;;;;9.70;7.70;;;;;;;;;;4996322;28;20030;-79
2023/09/02 12:37:20;;;;;;;9.82;7.55;;;;;;;;;;4995882;28;20037;-79
2023/09/02 12:39:47;;;;;;;8.73;6.50;;;;;;;;;;4997610;28;20433;-79
2023/09/02 12:42:24;;;;;;;9.05;6.03;;;;;;;;;;4995929;28;20057;-79
2023/09/02 12:45:00;;;;;;;8.65;6.13;;;;;;;;;;4996186;28;20030;-79
2023/09/02 12:47:27;;;;;;;7.95;5.88;;;;;;;;;;4979519;28;20026;-80
2023/09/02 12:49:54;;;;;;;7.90;5.55;;;;;;;;;;4995873;28;20026;-80
2023/09/02 12:52:20;;;;;;;8.60;6.60;;;;;;;;;;4996376;28;20027;-80
2023/09/02 12:54:57;;;;;;;7.88;5.82;;;;;;;;;;4995736;28;20046;-80
2023/09/02 12:57:30;;;;;;;9.02;5.72;;;;;;;;;;4995724;28;20142;-79
2023/09/02 12:59:57;;;;;;;5.38;4.75;;;;;;;;;;4995654;28;20109;-80
2023/09/02 13:02:33;;;;;;;8.80;5.50;;;;;;;;;;4995526;28;20461;-79
2023/09/02 13:04:58;;;;;;;6.63;4.63;;;;;;;;;;4995682;28;20530;-80
2023/09/02 13:07:24;;;;;;;6.68;5.50;;;;;;;;;;4979239;28;20054;-79
2023/09/02 13:09:50;;;;;;;6.22;4.75;;;;;;;;;;4995654;28;20042;-79
2023/09/02 13:12:16;;;;;;;5.40;4.22;;;;;;;;;;4979474;28;20388;-79
2023/09/02 13:14:42;;;;;;;6.05;4.47;;;;;;;;;;4995324;28;20101;-79
2023/09/02 13:17:07;;;;;;;5.90;4.07;;;;;;;;;;4995322;28;20109;-79
2023/09/02 13:19:33;;;;;;;5.28;4.63;;;;;;;;;;4995281;28;20065;-79
2023/09/02 13:21:59;;;;;;;5.25;4.18;;;;;;;;;;4995756;28;20351;-79
2023/09/02 13:24:25;;;;;;;5.13;4.40;;;;;;;;;;4995464;28;20085;-80
2023/09/02 13:26:51;;;;;;;4.80;4.13;;;;;;;;;;4996422;28;20049;-80
2023/09/02 13:29:17;;;;;;;5.78;4.32;;;;;;;;;;4995171;28;20027;-79
2023/09/02 13:31:46;;;;;;;6.97;4.38;;;;;;;;;;4994963;28;20119;-80
2023/09/02 13:34:31;;;;;;;6.45;4.28;;;;;;;;;;4995086;28;20026;-79
2023/09/02 13:37:18;;;;;;;4.88;4.05;;;;;;;;;;4996520;28;20030;-79
2023/09/02 13:39:45;;;;;;;6.95;4.32;;;;;;;;;;4996802;28;20034;-79
2023/09/02 13:42:17;;;;;;;5.22;4.28;;;;;;;;;;4997919;28;20481;-78
2023/09/02 13:44:43;;;;;;;5.18;4.32;;;;;;;;;;4992781;28;20046;-79
2023/09/02 13:47:08;;;;;;;7.50;4.43;;;;;;;;;;4998919;28;20382;-79
2023/09/02 13:49:34;;;;;;;5.30;4.28;;;;;;;;;;4999561;28;20054;-79
2023/09/02 13:52:00;;;;;;;8.63;4.40;;;;;;;;;;4998104;28;20046;-77
2023/09/02 13:54:26;;;;;;;4.45;3.63;;;;;;;;;;4997277;28;20077;-77
2023/09/02 13:56:51;;;;;;;6.13;3.58;;;;;;;;;;4999931;28;20059;-79
2023/09/02 13:59:17;;;;;;;4.57;3.78;;;;;;;;;;5001440;28;20510;-79
2023/09/02 14:01:43;;;;;;;7.63;3.78;;;;;;;;;;5002344;28;20061;-79
2023/09/02 14:04:08;;;;;;;6.45;4.03;;;;;;;;;;4998643;28;20061;-79
2023/09/02 14:06:34;;;;;;;4.75;3.47;;;;;;;;;;4997279;28;20038;-79
2023/09/02 14:09:03;;;;;;;6.07;3.75;;;;;;;;;;4997940;28;20378;-79
2023/09/02 14:11:31;;;;;;;4.30;3.33;;;;;;;;;;4979149;28;20034;-79
2023/09/02 14:13:59;;;;;;;4.68;3.55;;;;;;;;;;4994694;28;20413;-79
2023/09/02 14:16:26;;;;;;;4.07;3.60;;;;;;;;;;4994560;28;20026;-77
2023/09/02 14:18:51;;;;;;;5.85;3.58;;;;;;;;;;5003856;28;20084;-79
2023/09/02 14:21:16;;;;;;;4.45;3.38;;;;;;;;;;5005995;28;20025;-79
2023/09/02 14:23:43;;;;;;;5.68;3.40;;;;;;;;;;5014299;28;20463;-79
2023/09/02 14:26:09;;;;;;;5.30;3.28;;;;;;;;;;5014262;28;20022;-79
2023/09/02 14:28:35;;;;;;;4.20;3.40;;;;;;;;;;5014415;28;20025;-79
2023/09/02 14:31:01;;;;;;;4.97;3.13;;;;;;;;;;5014692;28;20030;-79
2023/09/02 14:33:26;;;;;;;5.07;2.70;;;;;;;;;;5013706;28;20466;-79
2023/09/02 14:35:51;;;;;;;5.68;2.75;;;;;;;;;;5013344;28;20034;-80
2023/09/02 14:38:17;;;;;;;3.45;2.80;;;;;;;;;;4996678;28;20393;-80
2023/09/02 14:40:42;;;;;;;3.80;2.97;;;;;;;;;;5014433;28;20065;-80